Terminal Aerodrome Forecast
Issued by NWS Bismarck, ND

Current Version | Previous Version | Text Only | Print | Product List | Glossary On
Versions: 1 2 3 4 5 6 7 8 9 10 11 12 13 14 15
000
FTUS43 KBIS 150100 AAA
TAFBIS
TAF AMD
KBIS 150118Z 1501/1524 35005KT P6SM BKN070
     FM150500 VRB03KT P6SM SKC
     FM151900 25007KT P6SM FEW110=

USA.gov is the U.S. government's official web portal to all federal, state and local government web resources and services.